createdAt,value
2018-06-24T00:01:35.647Z,13.10
2018-06-24T00:04:01.571Z,13.10
2018-06-24T00:06:27.535Z,13.10
2018-06-24T00:08:53.475Z,13.10
2018-06-24T00:11:20.153Z,13.00
2018-06-24T00:13:46.134Z,13.00
2018-06-24T00:16:12.834Z,13.10
2018-06-24T00:18:38.783Z,13.00
2018-06-24T00:21:04.696Z,13.00
2018-06-24T00:23:30.652Z,13.00
2018-06-24T00:25:56.566Z,12.90
2018-06-24T00:28:23.252Z,12.90
2018-06-24T00:30:49.207Z,12.80
2018-06-24T00:33:15.892Z,12.80
2018-06-24T00:35:41.844Z,12.80
2018-06-24T00:38:07.791Z,12.70
2018-06-24T00:40:33.740Z,12.70
2018-06-24T00:42:59.674Z,12.70
2018-06-24T00:45:25.634Z,12.70
2018-06-24T00:47:51.559Z,12.70
2018-06-24T00:50:17.518Z,12.80
2018-06-24T00:52:44.193Z,12.80
2018-06-24T00:55:10.131Z,12.80
2018-06-24T00:57:36.102Z,12.80
2018-06-24T01:00:02.779Z,12.90
2018-06-24T01:02:28.742Z,12.80
2018-06-24T01:04:54.686Z,12.90
2018-06-24T01:07:21.446Z,12.90
2018-06-24T01:09:47.369Z,12.90
2018-06-24T01:12:13.287Z,12.90
2018-06-24T01:14:39.228Z,13.00
2018-06-24T01:17:05.158Z,13.00
2018-06-24T01:19:31.101Z,13.00
2018-06-24T01:21:57.036Z,13.00
2018-06-24T01:24:23.745Z,13.00
2018-06-24T01:26:49.683Z,13.00
2018-06-24T01:29:15.686Z,13.00
2018-06-24T01:31:41.651Z,13.10
2018-06-24T01:34:08.326Z,13.00
2018-06-24T01:36:34.298Z,13.00
2018-06-24T01:39:00.246Z,13.00
2018-06-24T01:41:26.912Z,12.90
2018-06-24T01:43:52.850Z,13.00
2018-06-24T01:46:18.778Z,12.90
2018-06-24T01:48:44.725Z,12.80
2018-06-24T01:51:10.630Z,12.80
2018-06-24T01:53:36.562Z,12.70
2018-06-24T01:56:02.501Z,12.60
2018-06-24T01:58:28.436Z,12.50
2018-06-24T02:00:55.120Z,12.50
2018-06-24T02:03:21.058Z,12.40
2018-06-24T02:05:47.015Z,12.50
2018-06-24T02:08:12.999Z,12.40
2018-06-24T02:10:38.944Z,12.40
2018-06-24T02:13:04.907Z,12.30
2018-06-24T02:15:30.839Z,12.20
2018-06-24T02:17:56.805Z,12.20
2018-06-24T02:20:22.751Z,12.20
2018-06-24T02:22:49.430Z,12.20
2018-06-24T02:25:15.371Z,12.20
2018-06-24T02:27:41.296Z,12.20
2018-06-24T02:30:07.248Z,12.20
2018-06-24T02:32:33.180Z,12.30
2018-06-24T02:34:59.883Z,12.30
2018-06-24T02:37:25.798Z,12.20
2018-06-24T02:39:51.733Z,12.20
2018-06-24T02:42:17.691Z,12.20
2018-06-24T02:44:44.369Z,12.30
2018-06-24T02:47:10.331Z,12.30
2018-06-24T02:49:37.017Z,12.30
2018-06-24T02:52:02.973Z,12.30
2018-06-24T02:54:28.904Z,12.40
2018-06-24T02:56:54.863Z,12.40
2018-06-24T02:59:20.830Z,12.40
2018-06-24T03:01:46.755Z,12.40
2018-06-24T03:04:12.708Z,12.40
2018-06-24T03:06:39.408Z,12.40
2018-06-24T03:09:05.360Z,12.40
2018-06-24T03:11:31.292Z,12.40
2018-06-24T03:13:57.957Z,12.50
2018-06-24T03:16:23.887Z,12.50
2018-06-24T03:18:49.817Z,12.50
2018-06-24T03:21:15.753Z,12.50
2018-06-24T03:23:41.678Z,12.50
2018-06-24T03:26:07.624Z,12.60
2018-06-24T03:28:33.567Z,12.60
2018-06-24T03:31:00.259Z,12.60
2018-06-24T03:33:26.202Z,12.60
2018-06-24T03:35:52.128Z,12.60
2018-06-24T03:38:18.082Z,12.60
2018-06-24T03:40:44.748Z,12.60
2018-06-24T03:43:10.695Z,12.60
2018-06-24T03:45:36.634Z,12.70
2018-06-24T03:48:02.603Z,12.60
2018-06-24T03:50:28.539Z,12.60
2018-06-24T03:52:54.461Z,12.70
2018-06-24T03:55:20.425Z,12.70
2018-06-24T03:57:46.356Z,12.70
2018-06-24T04:00:13.044Z,12.80
2018-06-24T04:02:38.982Z,12.80
2018-06-24T04:05:04.944Z,12.80
2018-06-24T04:07:31.621Z,12.80
2018-06-24T04:09:57.578Z,12.80
2018-06-24T04:12:23.542Z,12.90
2018-06-24T04:14:49.532Z,12.90
2018-06-24T04:17:15.498Z,13.00
2018-06-24T04:19:41.430Z,13.00
2018-06-24T04:22:07.414Z,13.10
2018-06-24T04:24:34.089Z,13.10
2018-06-24T04:27:00.048Z,13.10
2018-06-24T04:29:25.965Z,13.10
2018-06-24T04:31:51.916Z,13.20
2018-06-24T04:34:18.599Z,13.20
2018-06-24T04:36:44.545Z,13.20
2018-06-24T04:39:10.468Z,13.20
2018-06-24T04:41:36.389Z,13.30
2018-06-24T04:44:02.334Z,13.30
2018-06-24T04:46:28.271Z,13.30
2018-06-24T04:48:54.994Z,13.30
2018-06-24T04:51:21.690Z,13.30
2018-06-24T04:53:47.656Z,13.30
2018-06-24T04:56:13.600Z,13.30
2018-06-24T04:58:40.301Z,13.30
2018-06-24T05:01:06.238Z,13.30
2018-06-24T05:03:32.159Z,13.30
2018-06-24T05:05:58.095Z,13.30
2018-06-24T05:08:24.033Z,13.30
2018-06-24T05:10:50.721Z,13.40
2018-06-24T05:13:16.664Z,13.40
2018-06-24T05:15:42.625Z,13.40
2018-06-24T05:18:08.559Z,13.50
2018-06-24T05:20:34.501Z,13.50
2018-06-24T05:23:00.440Z,13.60
2018-06-24T05:25:26.359Z,13.70
2018-06-24T05:27:52.322Z,13.80
2018-06-24T05:30:19.043Z,13.80
2018-06-24T05:32:44.476Z,13.80
2018-06-24T05:35:11.142Z,14.00
2018-06-24T05:37:37.068Z,14.00
2018-06-24T05:40:03.025Z,14.10
2018-06-24T05:42:28.946Z,14.10
2018-06-24T05:44:54.913Z,14.10
2018-06-24T05:47:20.836Z,14.20
2018-06-24T05:49:46.785Z,14.20
2018-06-24T05:52:12.715Z,14.30
2018-06-24T05:54:38.688Z,14.30
2018-06-24T05:57:05.359Z,14.30
2018-06-24T05:59:31.281Z,14.30
2018-06-24T06:01:57.219Z,14.40
2018-06-24T06:04:23.148Z,14.50
2018-06-24T06:06:49.116Z,14.40
2018-06-24T06:09:15.784Z,14.50
2018-06-24T06:11:41.741Z,14.50
2018-06-24T06:14:07.671Z,14.50
2018-06-24T06:16:33.619Z,14.40
2018-06-24T06:19:00.290Z,14.00
2018-06-24T06:21:26.234Z,14.00
2018-06-24T06:23:52.204Z,13.90
2018-06-24T06:26:18.139Z,13.80
2018-06-24T06:28:44.091Z,13.70
2018-06-24T06:31:10.016Z,13.70
2018-06-24T06:33:35.958Z,13.70
2018-06-24T06:36:01.892Z,13.80
2018-06-24T06:38:27.846Z,13.90
2018-06-24T06:40:53.776Z,14.00
2018-06-24T06:43:19.752Z,14.00
2018-06-24T06:45:45.893Z,14.00
2018-06-24T06:48:11.649Z,14.00
2018-06-24T06:50:37.620Z,13.90
2018-06-24T06:53:03.558Z,13.80
2018-06-24T06:55:30.273Z,13.70
2018-06-24T06:57:56.214Z,13.70
2018-06-24T07:00:22.927Z,13.70
2018-06-24T07:02:48.862Z,13.70
2018-06-24T07:05:14.788Z,13.60
2018-06-24T07:07:40.734Z,13.60
2018-06-24T07:10:07.406Z,13.70
2018-06-24T07:12:33.442Z,13.70
2018-06-24T07:14:59.425Z,13.90
2018-06-24T07:17:26.112Z,13.90
2018-06-24T07:19:52.046Z,13.90
2018-06-24T07:22:18.019Z,14.00
2018-06-24T07:24:43.975Z,14.10
2018-06-24T07:27:10.152Z,14.10
2018-06-24T07:29:36.843Z,14.10
2018-06-24T07:32:02.799Z,14.10
2018-06-24T07:34:29.512Z,14.20
2018-06-24T07:36:55.442Z,14.20
2018-06-24T07:39:21.403Z,14.30
2018-06-24T07:41:47.346Z,14.30
2018-06-24T07:44:13.299Z,14.30
2018-06-24T07:46:39.257Z,14.30
2018-06-24T07:49:05.942Z,14.20
2018-06-24T07:51:31.908Z,14.20
2018-06-24T07:53:58.609Z,14.00
2018-06-24T07:56:24.576Z,14.00
2018-06-24T07:58:51.246Z,13.80
2018-06-24T08:01:17.174Z,13.80
2018-06-24T08:03:43.120Z,13.80
2018-06-24T08:06:09.067Z,13.90
2018-06-24T08:08:35.076Z,13.80
2018-06-24T08:11:00.955Z,13.80
2018-06-24T08:13:26.919Z,13.70
2018-06-24T08:15:52.850Z,13.70
2018-06-24T08:18:18.762Z,13.80
2018-06-24T08:20:44.720Z,13.80
2018-06-24T08:23:11.384Z,14.10
2018-06-24T08:25:37.368Z,14.10
2018-06-24T08:28:03.310Z,14.10
2018-06-24T08:30:29.267Z,14.20
2018-06-24T08:32:55.189Z,14.30
2018-06-24T08:35:21.121Z,14.20
2018-06-24T08:37:47.709Z,14.10
2018-06-24T08:40:14.378Z,14.20
2018-06-24T08:42:40.347Z,14.20
2018-06-24T08:45:06.276Z,14.10
2018-06-24T08:47:32.230Z,14.10
2018-06-24T08:49:58.152Z,14.10
2018-06-24T08:52:24.102Z,14.00
2018-06-24T08:54:50.019Z,13.90
2018-06-24T08:57:15.973Z,14.00
2018-06-24T08:59:41.935Z,14.20
2018-06-24T09:02:07.853Z,14.40
2018-06-24T09:04:33.796Z,14.50
2018-06-24T09:06:59.707Z,14.70
2018-06-24T09:09:25.647Z,14.70
2018-06-24T09:11:51.589Z,14.70
2018-06-24T09:14:17.547Z,14.70
2018-06-24T09:16:43.479Z,14.70
2018-06-24T09:19:10.148Z,14.80
2018-06-24T09:21:36.106Z,14.80
2018-06-24T09:24:02.052Z,14.70
2018-06-24T09:26:28.734Z,14.60
2018-06-24T09:28:54.690Z,14.60
2018-06-24T09:31:20.652Z,14.60
2018-06-24T09:33:46.583Z,14.70
2018-06-24T09:36:12.521Z,14.60
2018-06-24T09:38:38.477Z,14.70
2018-06-24T09:41:04.411Z,14.60
2018-06-24T09:43:31.115Z,14.60
2018-06-24T09:45:57.032Z,14.60
2018-06-24T09:48:22.991Z,14.60
2018-06-24T09:50:48.934Z,14.60
2018-06-24T09:53:15.602Z,14.90
2018-06-24T09:55:41.563Z,14.90
2018-06-24T09:58:07.482Z,14.90
2018-06-24T10:00:33.428Z,15.00
2018-06-24T10:03:00.106Z,15.00
2018-06-24T10:05:26.064Z,15.00
2018-06-24T10:07:52.052Z,15.00
2018-06-24T10:10:17.972Z,14.90
2018-06-24T10:12:43.919Z,15.10
2018-06-24T10:15:09.839Z,15.50
2018-06-24T10:17:35.882Z,15.60
2018-06-24T10:20:01.777Z,15.80
2018-06-24T10:22:27.753Z,15.80
2018-06-24T10:24:54.433Z,15.60
2018-06-24T10:27:20.379Z,15.60
2018-06-24T10:29:46.330Z,15.60
2018-06-24T10:32:12.991Z,15.80
2018-06-24T10:34:38.954Z,15.70
2018-06-24T10:37:04.888Z,15.60
2018-06-24T10:39:30.840Z,15.50
2018-06-24T10:41:57.512Z,15.20
2018-06-24T10:44:23.448Z,15.20
2018-06-24T10:46:49.395Z,15.10
2018-06-24T10:49:15.332Z,15.10
2018-06-24T10:51:41.264Z,15.20
2018-06-24T10:54:07.952Z,15.10
2018-06-24T10:56:33.891Z,15.10
2018-06-24T10:58:59.798Z,15.20
2018-06-24T11:01:25.726Z,15.30
2018-06-24T11:03:51.667Z,15.30
2018-06-24T11:06:17.599Z,15.30
2018-06-24T11:08:43.542Z,15.30
2018-06-24T11:11:10.224Z,15.30
2018-06-24T11:13:36.172Z,15.30
2018-06-24T11:16:02.104Z,15.20
2018-06-24T11:18:28.064Z,15.20
2018-06-24T11:20:53.991Z,15.20
2018-06-24T11:23:19.907Z,15.30
2018-06-24T11:25:45.864Z,15.50
2018-06-24T11:28:11.808Z,15.50
2018-06-24T11:30:37.757Z,15.50
2018-06-24T11:33:03.688Z,15.60
2018-06-24T11:35:29.641Z,15.50
2018-06-24T11:37:55.590Z,15.60
2018-06-24T11:40:21.559Z,15.70
2018-06-24T11:42:47.487Z,15.80
2018-06-24T11:45:13.434Z,15.80
2018-06-24T11:47:39.396Z,16.00
2018-06-24T11:50:06.065Z,16.20
2018-06-24T11:52:32.016Z,16.20
2018-06-24T11:54:57.965Z,16.30
2018-06-24T11:57:24.670Z,16.20
2018-06-24T11:59:50.601Z,16.20
2018-06-24T12:02:16.559Z,16.00
2018-06-24T12:04:42.487Z,16.00
2018-06-24T12:07:09.142Z,16.10
2018-06-24T12:09:35.115Z,16.00
2018-06-24T12:12:01.040Z,16.00
2018-06-24T12:14:27.756Z,16.00
2018-06-24T12:16:53.672Z,16.00
2018-06-24T12:19:19.596Z,15.90
2018-06-24T12:21:45.571Z,16.10
2018-06-24T12:24:12.264Z,16.30
2018-06-24T12:26:38.234Z,16.30
2018-06-24T12:29:04.904Z,16.30
2018-06-24T12:31:30.842Z,16.30
2018-06-24T12:33:56.816Z,16.40
2018-06-24T12:36:23.509Z,16.20
2018-06-24T12:38:49.460Z,16.20
2018-06-24T12:41:15.392Z,16.10
2018-06-24T12:43:41.337Z,16.00
2018-06-24T12:46:07.263Z,16.10
2018-06-24T12:48:33.928Z,15.90
2018-06-24T12:50:59.864Z,15.90
2018-06-24T12:53:25.809Z,15.70
2018-06-24T12:55:51.761Z,15.50
2018-06-24T12:58:18.473Z,15.50
2018-06-24T13:00:44.703Z,15.50
2018-06-24T13:03:11.077Z,15.60
2018-06-24T13:05:37.032Z,15.50
2018-06-24T13:08:02.949Z,15.70
2018-06-24T13:10:28.876Z,15.70
2018-06-24T13:12:54.813Z,15.80
2018-06-24T13:15:20.742Z,15.70
2018-06-24T13:17:46.699Z,15.80
2018-06-24T13:20:12.654Z,16.00
2018-06-24T13:22:38.611Z,16.00
2018-06-24T13:25:04.518Z,16.10
2018-06-24T13:27:30.464Z,16.00
2018-06-24T13:29:56.389Z,15.90
2018-06-24T13:32:22.352Z,16.00
2018-06-24T13:34:48.269Z,15.90
2018-06-24T13:37:14.204Z,15.80
2018-06-24T13:39:40.172Z,15.70
2018-06-24T13:42:06.868Z,15.80
2018-06-24T13:44:32.818Z,15.80
2018-06-24T13:46:58.742Z,16.00
2018-06-24T13:49:24.722Z,16.20
2018-06-24T13:51:50.683Z,16.30
2018-06-24T13:54:16.619Z,16.40
2018-06-24T13:56:42.611Z,16.20
2018-06-24T13:59:08.561Z,16.00
2018-06-24T14:01:34.507Z,16.00
2018-06-24T14:04:00.512Z,16.20
2018-06-24T14:06:26.415Z,16.30
2018-06-24T14:08:52.358Z,16.20
2018-06-24T14:11:18.289Z,16.10
2018-06-24T14:13:44.996Z,15.90
2018-06-24T14:16:10.931Z,15.90
2018-06-24T14:18:37.632Z,16.10
2018-06-24T14:21:03.575Z,16.10
2018-06-24T14:23:29.597Z,16.20
2018-06-24T14:25:56.230Z,16.70
2018-06-24T14:28:22.169Z,16.70
2018-06-24T14:30:48.138Z,16.90
2018-06-24T14:33:14.062Z,17.00
2018-06-24T14:35:39.994Z,16.80
2018-06-24T14:38:05.952Z,16.60
2018-06-24T14:40:31.894Z,16.40
2018-06-24T14:42:58.601Z,16.30
2018-06-24T14:45:24.550Z,16.20
2018-06-24T14:47:50.511Z,16.20
2018-06-24T14:50:16.451Z,16.40
2018-06-24T14:52:42.388Z,16.60
2018-06-24T14:55:08.347Z,16.60
2018-06-24T14:57:35.010Z,16.90
2018-06-24T15:00:00.955Z,16.90
2018-06-24T15:02:26.878Z,16.90
2018-06-24T15:04:52.850Z,16.90
2018-06-24T15:07:18.835Z,16.80
2018-06-24T15:09:44.752Z,16.50
2018-06-24T15:12:10.781Z,16.60
2018-06-24T15:14:36.675Z,16.80
2018-06-24T15:17:02.621Z,16.90
2018-06-24T15:19:28.544Z,17.00
2018-06-24T15:21:54.509Z,17.00
2018-06-24T15:24:21.191Z,16.70
2018-06-24T15:26:47.155Z,16.70
2018-06-24T15:29:13.850Z,16.40
2018-06-24T15:31:39.811Z,16.40
2018-06-24T15:34:05.773Z,16.40
2018-06-24T15:36:31.698Z,16.50
2018-06-24T15:38:57.644Z,16.60
2018-06-24T15:41:30.563Z,16.50
2018-06-24T15:43:56.524Z,16.50
2018-06-24T15:46:22.439Z,16.60
2018-06-24T15:48:48.407Z,16.40
2018-06-24T15:51:15.121Z,16.20
2018-06-24T15:53:42.065Z,16.30
2018-06-24T15:56:08.001Z,16.30
2018-06-24T15:58:33.938Z,16.30
2018-06-24T16:00:59.897Z,16.40
2018-06-24T16:03:26.600Z,16.70
2018-06-24T16:05:52.551Z,16.70
2018-06-24T16:08:18.490Z,17.00
2018-06-24T16:10:45.198Z,17.10
2018-06-24T16:13:11.126Z,17.10
2018-06-24T16:15:37.839Z,17.10
2018-06-24T16:18:03.779Z,17.10
2018-06-24T16:20:29.732Z,17.20
2018-06-24T16:22:56.427Z,16.90
2018-06-24T16:25:22.348Z,16.90
2018-06-24T16:27:48.308Z,16.70
2018-06-24T16:30:15.021Z,16.50
2018-06-24T16:32:41.689Z,16.30
2018-06-24T16:35:08.386Z,16.40
2018-06-24T16:37:34.352Z,16.40
2018-06-24T16:40:01.056Z,16.80
2018-06-24T16:42:27.099Z,16.80
2018-06-24T16:44:52.994Z,16.90
2018-06-24T16:47:19.659Z,17.00
2018-06-24T16:49:45.653Z,16.90
2018-06-24T16:52:11.662Z,16.80
2018-06-24T16:54:37.673Z,16.70
2018-06-24T16:57:03.639Z,16.50
2018-06-24T16:59:29.597Z,16.30
2018-06-24T17:01:56.274Z,16.20
2018-06-24T17:04:22.211Z,16.20
2018-06-24T17:06:48.181Z,16.20
2018-06-24T17:09:14.138Z,16.30
2018-06-24T17:11:40.089Z,16.40
2018-06-24T17:14:06.013Z,16.40
2018-06-24T17:16:31.986Z,16.50
2018-06-24T17:18:57.926Z,16.50
2018-06-24T17:21:23.911Z,16.40
2018-06-24T17:23:50.605Z,16.50
2018-06-24T17:26:16.536Z,16.50
2018-06-24T17:28:42.492Z,16.50
2018-06-24T17:31:09.158Z,16.50
2018-06-24T17:33:35.136Z,16.50
2018-06-24T17:36:01.049Z,16.50
2018-06-24T17:38:26.982Z,16.40
2018-06-24T17:40:52.943Z,16.20
2018-06-24T17:43:18.866Z,16.10
2018-06-24T17:45:44.899Z,15.90
2018-06-24T17:48:11.542Z,15.70
2018-06-24T17:50:37.550Z,15.70
2018-06-24T17:53:04.215Z,15.60
2018-06-24T17:55:30.144Z,15.50
2018-06-24T17:57:56.118Z,15.60
2018-06-24T18:00:22.782Z,15.70
2018-06-24T18:02:48.755Z,15.70
2018-06-24T18:05:14.719Z,15.70
2018-06-24T18:07:40.665Z,15.60
2018-06-24T18:10:06.619Z,15.50
2018-06-24T18:12:32.571Z,15.50
2018-06-24T18:14:59.241Z,15.30
2018-06-24T18:17:25.186Z,15.30
2018-06-24T18:19:51.102Z,15.20
2018-06-24T18:22:17.075Z,15.20
2018-06-24T18:24:43.015Z,15.10
2018-06-24T18:27:08.958Z,15.10
2018-06-24T18:29:34.903Z,15.10
2018-06-24T18:32:00.853Z,15.10
2018-06-24T18:34:27.525Z,15.00
2018-06-24T18:36:53.466Z,15.00
2018-06-24T18:39:19.407Z,15.00
2018-06-24T18:41:45.336Z,15.10
2018-06-24T18:44:11.318Z,15.00
2018-06-24T18:46:37.233Z,15.10
2018-06-24T18:49:03.182Z,15.10
2018-06-24T18:51:29.151Z,15.10
2018-06-24T18:53:55.270Z,15.10
2018-06-24T18:56:21.968Z,15.10
2018-06-24T18:58:47.891Z,15.00
2018-06-24T19:01:13.863Z,15.00
2018-06-24T19:03:40.535Z,15.00
2018-06-24T19:06:06.503Z,15.00
2018-06-24T19:08:32.484Z,15.00
2018-06-24T19:10:58.462Z,15.00
2018-06-24T19:13:25.144Z,15.00
2018-06-24T19:15:51.856Z,14.90
2018-06-24T19:18:17.799Z,14.90
2018-06-24T19:20:43.747Z,14.80
2018-06-24T19:23:10.446Z,14.80
2018-06-24T19:25:36.382Z,14.80
2018-06-24T19:28:02.336Z,14.80
2018-06-24T19:30:28.279Z,14.80
2018-06-24T19:32:54.206Z,14.80
2018-06-24T19:35:20.157Z,14.70
2018-06-24T19:37:46.103Z,14.70
2018-06-24T19:40:12.110Z,14.60
2018-06-24T19:42:38.057Z,14.60
2018-06-24T19:45:04.003Z,14.60
2018-06-24T19:47:29.962Z,14.60
2018-06-24T19:49:56.656Z,14.60
2018-06-24T19:52:22.665Z,14.60
2018-06-24T19:54:48.609Z,14.50
2018-06-24T19:57:15.298Z,14.50
2018-06-24T19:59:41.271Z,14.40
2018-06-24T20:02:07.249Z,14.40
2018-06-24T20:04:33.213Z,14.40
2018-06-24T20:06:59.159Z,14.40
2018-06-24T20:09:26.340Z,14.30
2018-06-24T20:11:52.287Z,14.30
2018-06-24T20:14:18.212Z,14.30
2018-06-24T20:16:44.165Z,14.20
2018-06-24T20:19:10.847Z,14.20
2018-06-24T20:21:36.794Z,14.20
2018-06-24T20:24:02.725Z,14.20
2018-06-24T20:26:28.685Z,14.20
2018-06-24T20:28:55.335Z,14.20
2018-06-24T20:31:21.294Z,14.20
2018-06-24T20:33:47.258Z,14.20
2018-06-24T20:36:13.944Z,14.30
2018-06-24T20:38:39.899Z,14.30
2018-06-24T20:41:05.884Z,14.30
2018-06-24T20:43:31.889Z,14.30
2018-06-24T20:45:57.900Z,14.30
2018-06-24T20:48:23.865Z,14.30
2018-06-24T20:50:49.842Z,14.30
2018-06-24T20:53:16.537Z,14.30
2018-06-24T20:55:42.477Z,14.30
2018-06-24T20:58:08.482Z,14.30
2018-06-24T21:00:34.460Z,14.20
2018-06-24T21:03:00.460Z,14.30
2018-06-24T21:05:27.167Z,14.20
2018-06-24T21:07:53.124Z,14.10
2018-06-24T21:10:19.089Z,14.20
2018-06-24T21:12:45.049Z,14.20
2018-06-24T21:15:11.035Z,14.20
2018-06-24T21:17:37.001Z,14.20
2018-06-24T21:20:02.935Z,14.20
2018-06-24T21:22:28.914Z,14.20
2018-06-24T21:24:54.852Z,14.20
2018-06-24T21:27:20.820Z,14.20
2018-06-24T21:29:47.499Z,14.30
2018-06-24T21:32:13.464Z,14.20
2018-06-24T21:34:40.173Z,14.30
2018-06-24T21:37:06.152Z,14.30
2018-06-24T21:39:32.829Z,14.40
2018-06-24T21:41:58.775Z,14.40
2018-06-24T21:44:24.744Z,14.40
2018-06-24T21:46:50.709Z,14.40
2018-06-24T21:49:16.660Z,14.40
2018-06-24T21:51:42.608Z,14.40
2018-06-24T21:54:08.557Z,14.40
2018-06-24T21:56:34.514Z,14.30
2018-06-24T21:59:00.473Z,14.30
2018-06-24T22:01:26.424Z,14.30
2018-06-24T22:03:53.143Z,14.40
2018-06-24T22:06:19.104Z,14.40
2018-06-24T22:08:45.073Z,14.40
2018-06-24T22:11:11.724Z,14.40
2018-06-24T22:13:37.700Z,14.40
2018-06-24T22:16:03.677Z,14.40
2018-06-24T22:18:29.652Z,14.50
2018-06-24T22:20:55.620Z,14.50
2018-06-24T22:23:21.561Z,14.40
2018-06-24T22:25:48.288Z,14.50
2018-06-24T22:28:14.248Z,14.50
2018-06-24T22:30:40.188Z,14.50
2018-06-24T22:33:06.896Z,14.50
2018-06-24T22:35:32.847Z,14.50
2018-06-24T22:37:59.569Z,14.50
2018-06-24T22:40:25.512Z,14.50
2018-06-24T22:42:52.224Z,14.50
2018-06-24T22:45:18.184Z,14.50
2018-06-24T22:47:44.857Z,14.50
2018-06-24T22:50:10.829Z,14.50
2018-06-24T22:52:36.784Z,14.50
2018-06-24T22:55:02.742Z,14.50
2018-06-24T22:57:28.692Z,14.50
2018-06-24T22:59:54.658Z,14.50
2018-06-24T23:02:20.584Z,14.60
2018-06-24T23:04:46.544Z,14.50
2018-06-24T23:07:12.477Z,14.60
2018-06-24T23:09:38.419Z,14.50
2018-06-24T23:12:05.132Z,14.60
2018-06-24T23:14:31.084Z,14.60
2018-06-24T23:16:57.787Z,14.60
2018-06-24T23:19:23.741Z,14.60
2018-06-24T23:21:50.431Z,14.60
2018-06-24T23:24:16.377Z,14.60
2018-06-24T23:26:42.315Z,14.60
2018-06-24T23:29:09.033Z,14.60
2018-06-24T23:31:34.978Z,14.60
2018-06-24T23:34:01.659Z,14.60
2018-06-24T23:36:27.636Z,14.60
2018-06-24T23:38:53.576Z,14.60
2018-06-24T23:41:20.280Z,14.60
2018-06-24T23:43:46.225Z,14.50
2018-06-24T23:46:12.945Z,14.60
2018-06-24T23:48:38.899Z,14.60
2018-06-24T23:51:04.852Z,14.60
2018-06-24T23:53:30.810Z,14.60
2018-06-24T23:55:56.770Z,14.60
2018-06-24T23:58:23.492Z,14.60
